sensor_id;sensor_type;location;lat;lon;timestamp;temperature;humidity
24682;DHT22;12802;53.390;-2.328;2023-07-24T00:30:20;12.50;99.90
24682;DHT22;12802;53.390;-2.328;2023-07-24T00:32:46;12.50;99.90
24682;DHT22;12802;53.390;-2.328;2023-07-24T00:35:12;12.40;99.90
24682;DHT22;12802;53.390;-2.328;2023-07-24T00:37:37;12.50;99.90
24682;DHT22;12802;53.390;-2.328;2023-07-24T00:40:04;12.50;99.90
24682;DHT22;12802;53.390;-2.328;2023-07-24T00:42:30;12.50;99.90
24682;DHT22;12802;53.390;-2.328;2023-07-24T00:44:59;12.50;99.90
24682;DHT22;12802;53.390;-2.328;2023-07-24T00:47:28;12.50;99.90
24682;DHT22;12802;53.390;-2.328;2023-07-24T00:49:54;12.50;99.90
24682;DHT22;12802;53.390;-2.328;2023-07-24T00:52:20;12.50;99.90
24682;DHT22;12802;53.390;-2.328;2023-07-24T00:54:46;12.40;99.90
24682;DHT22;12802;53.390;-2.328;2023-07-24T00:57:13;12.40;99.90
24682;DHT22;12802;53.390;-2.328;2023-07-24T00:59:39;12.50;99.90
24682;DHT22;12802;53.390;-2.328;2023-07-24T01:02:05;12.50;99.90
24682;DHT22;12802;53.390;-2.328;2023-07-24T01:04:31;12.40;99.90
24682;DHT22;12802;53.390;-2.328;2023-07-24T01:06:57;12.40;99.90
24682;DHT22;12802;53.390;-2.328;2023-07-24T01:09:23;12.30;99.90
24682;DHT22;12802;53.390;-2.328;2023-07-24T01:11:59;12.30;99.90
24682;DHT22;12802;53.390;-2.328;2023-07-24T01:17:32;12.20;99.90
24682;DHT22;12802;53.390;-2.328;2023-07-24T01:19:59;12.20;99.90
24682;DHT22;12802;53.390;-2.328;2023-07-24T01:27:27;12.30;99.90
24682;DHT22;12802;53.390;-2.328;2023-07-24T01:29:53;12.30;99.90
24682;DHT22;12802;53.390;-2.328;2023-07-24T01:32:19;12.30;99.90
24682;DHT22;12802;53.390;-2.328;2023-07-24T01:34:47;12.30;99.90
24682;DHT22;12802;53.390;-2.328;2023-07-24T01:37:13;12.30;99.90
24682;DHT22;12802;53.390;-2.328;2023-07-24T01:39:43;12.30;99.90
24682;DHT22;12802;53.390;-2.328;2023-07-24T01:42:10;12.30;99.90
24682;DHT22;12802;53.390;-2.328;2023-07-24T01:44:36;12.30;99.90
24682;DHT22;12802;53.390;-2.328;2023-07-24T01:47:02;12.40;99.90
24682;DHT22;12802;53.390;-2.328;2023-07-24T01:49:28;12.40;99.90
24682;DHT22;12802;53.390;-2.328;2023-07-24T01:51:54;12.40;99.90
24682;DHT22;12802;53.390;-2.328;2023-07-24T01:54:19;12.40;99.90
24682;DHT22;12802;53.390;-2.328;2023-07-24T01:56:45;12.40;99.90
24682;DHT22;12802;53.390;-2.328;2023-07-24T01:59:11;12.40;99.90
24682;DHT22;12802;53.390;-2.328;2023-07-24T02:01:36;12.40;99.90
24682;DHT22;12802;53.390;-2.328;2023-07-24T02:04:02;12.40;99.90
24682;DHT22;12802;53.390;-2.328;2023-07-24T02:06:28;12.40;99.90
24682;DHT22;12802;53.390;-2.328;2023-07-24T02:08:54;12.30;99.90
24682;DHT22;12802;53.390;-2.328;2023-07-24T02:11:19;12.40;99.90
24682;DHT22;12802;53.390;-2.328;2023-07-24T02:13:46;12.40;99.90
24682;DHT22;12802;53.390;-2.328;2023-07-24T02:16:13;12.40;99.90
24682;DHT22;12802;53.390;-2.328;2023-07-24T02:18:41;12.40;99.90
24682;DHT22;12802;53.390;-2.328;2023-07-24T02:21:08;12.40;99.90
24682;DHT22;12802;53.390;-2.328;2023-07-24T02:23:33;12.40;99.90
24682;DHT22;12802;53.390;-2.328;2023-07-24T02:26:00;12.30;99.90
24682;DHT22;12802;53.390;-2.328;2023-07-24T02:28:26;12.30;99.90
24682;DHT22;12802;53.390;-2.328;2023-07-24T02:30:52;12.30;99.90
24682;DHT22;12802;53.390;-2.328;2023-07-24T02:33:22;12.20;99.90
24682;DHT22;12802;53.390;-2.328;2023-07-24T02:35:50;12.30;99.90
24682;DHT22;12802;53.390;-2.328;2023-07-24T02:38:16;12.30;99.90
24682;DHT22;12802;53.390;-2.328;2023-07-24T02:40:43;12.30;99.90
24682;DHT22;12802;53.390;-2.328;2023-07-24T02:43:09;12.30;99.90
24682;DHT22;12802;53.390;-2.328;2023-07-24T02:45:36;12.30;99.90
24682;DHT22;12802;53.390;-2.328;2023-07-24T02:48:02;12.20;99.90
24682;DHT22;12802;53.390;-2.328;2023-07-24T02:50:29;12.20;99.90
24682;DHT22;12802;53.390;-2.328;2023-07-24T02:52:54;12.20;99.90
24682;DHT22;12802;53.390;-2.328;2023-07-24T02:55:20;12.20;99.90
24682;DHT22;12802;53.390;-2.328;2023-07-24T02:57:46;12.30;99.90
24682;DHT22;12802;53.390;-2.328;2023-07-24T03:00:12;12.30;99.90
24682;DHT22;12802;53.390;-2.328;2023-07-24T03:02:39;12.30;99.90
24682;DHT22;12802;53.390;-2.328;2023-07-24T03:05:05;12.30;99.90
24682;DHT22;12802;53.390;-2.328;2023-07-24T03:07:31;12.30;99.90
24682;DHT22;12802;53.390;-2.328;2023-07-24T03:09:57;12.30;99.90
24682;DHT22;12802;53.390;-2.328;2023-07-24T03:12:23;12.40;99.90
24682;DHT22;12802;53.390;-2.328;2023-07-24T03:14:49;12.40;99.90
24682;DHT22;12802;53.390;-2.328;2023-07-24T03:17:14;12.30;99.90
24682;DHT22;12802;53.390;-2.328;2023-07-24T03:19:41;12.30;99.90
24682;DHT22;12802;53.390;-2.328;2023-07-24T03:22:06;12.30;99.90
24682;DHT22;12802;53.390;-2.328;2023-07-24T03:24:33;12.40;99.90
24682;DHT22;12802;53.390;-2.328;2023-07-24T03:26:59;12.30;99.90
24682;DHT22;12802;53.390;-2.328;2023-07-24T03:29:26;12.40;99.90
24682;DHT22;12802;53.390;-2.328;2023-07-24T03:31:52;12.40;99.90
24682;DHT22;12802;53.390;-2.328;2023-07-24T03:34:18;12.40;99.90
24682;DHT22;12802;53.390;-2.328;2023-07-24T03:36:44;12.40;99.90
24682;DHT22;12802;53.390;-2.328;2023-07-24T03:39:10;12.50;99.90
24682;DHT22;12802;53.390;-2.328;2023-07-24T03:41:38;12.50;99.90
24682;DHT22;12802;53.390;-2.328;2023-07-24T03:44:04;12.60;99.90
24682;DHT22;12802;53.390;-2.328;2023-07-24T03:46:32;12.60;99.90
24682;DHT22;12802;53.390;-2.328;2023-07-24T03:48:58;12.60;99.90
24682;DHT22;12802;53.390;-2.328;2023-07-24T03:51:24;12.50;99.90
24682;DHT22;12802;53.390;-2.328;2023-07-24T03:53:50;12.60;99.90
24682;DHT22;12802;53.390;-2.328;2023-07-24T03:56:16;12.60;99.90
24682;DHT22;12802;53.390;-2.328;2023-07-24T03:58:41;12.60;99.90
24682;DHT22;12802;53.390;-2.328;2023-07-24T04:01:08;12.60;99.90
24682;DHT22;12802;53.390;-2.328;2023-07-24T04:03:35;12.60;99.90
24682;DHT22;12802;53.390;-2.328;2023-07-24T04:06:00;12.60;99.90
24682;DHT22;12802;53.390;-2.328;2023-07-24T04:08:26;12.70;99.90
24682;DHT22;12802;53.390;-2.328;2023-07-24T04:10:52;12.70;99.90
24682;DHT22;12802;53.390;-2.328;2023-07-24T04:13:18;12.70;99.90
24682;DHT22;12802;53.390;-2.328;2023-07-24T04:15:44;12.70;99.90
24682;DHT22;12802;53.390;-2.328;2023-07-24T04:18:10;12.70;99.90
24682;DHT22;12802;53.390;-2.328;2023-07-24T04:20:36;12.70;99.90
24682;DHT22;12802;53.390;-2.328;2023-07-24T04:23:02;12.70;99.90
24682;DHT22;12802;53.390;-2.328;2023-07-24T04:25:28;12.70;99.90
24682;DHT22;12802;53.390;-2.328;2023-07-24T04:27:53;12.70;99.90
24682;DHT22;12802;53.390;-2.328;2023-07-24T04:30:19;12.70;99.90
24682;DHT22;12802;53.390;-2.328;2023-07-24T04:32:45;12.70;99.90
24682;DHT22;12802;53.390;-2.328;2023-07-24T04:35:11;12.60;99.90
24682;DHT22;12802;53.390;-2.328;2023-07-24T04:37:37;12.70;99.90
24682;DHT22;12802;53.390;-2.328;2023-07-24T04:40:04;12.70;99.90
24682;DHT22;12802;53.390;-2.328;2023-07-24T04:42:30;12.70;99.90
24682;DHT22;12802;53.390;-2.328;2023-07-24T04:44:56;12.70;99.90
24682;DHT22;12802;53.390;-2.328;2023-07-24T04:47:22;12.70;99.90
24682;DHT22;12802;53.390;-2.328;2023-07-24T04:49:48;12.80;99.90
24682;DHT22;12802;53.390;-2.328;2023-07-24T04:52:13;12.80;99.90
24682;DHT22;12802;53.390;-2.328;2023-07-24T04:54:39;12.80;99.90
24682;DHT22;12802;53.390;-2.328;2023-07-24T04:57:05;12.80;99.90
24682;DHT22;12802;53.390;-2.328;2023-07-24T04:59:31;12.70;99.90
24682;DHT22;12802;53.390;-2.328;2023-07-24T05:01:56;12.80;99.90
24682;DHT22;12802;53.390;-2.328;2023-07-24T05:04:22;12.80;99.90
24682;DHT22;12802;53.390;-2.328;2023-07-24T05:06:48;12.80;99.90
24682;DHT22;12802;53.390;-2.328;2023-07-24T05:09:13;12.80;99.90
24682;DHT22;12802;53.390;-2.328;2023-07-24T05:11:41;12.80;99.90
24682;DHT22;12802;53.390;-2.328;2023-07-24T05:14:09;12.80;99.90
24682;DHT22;12802;53.390;-2.328;2023-07-24T05:16:34;12.80;99.90
24682;DHT22;12802;53.390;-2.328;2023-07-24T05:19:00;12.80;99.90
24682;DHT22;12802;53.390;-2.328;2023-07-24T05:21:26;12.80;99.90
24682;DHT22;12802;53.390;-2.328;2023-07-24T05:23:51;12.80;99.90
24682;DHT22;12802;53.390;-2.328;2023-07-24T05:26:17;12.80;99.90
24682;DHT22;12802;53.390;-2.328;2023-07-24T05:28:43;12.80;99.90
24682;DHT22;12802;53.390;-2.328;2023-07-24T05:31:08;12.80;99.90
24682;DHT22;12802;53.390;-2.328;2023-07-24T05:33:34;12.70;99.90
24682;DHT22;12802;53.390;-2.328;2023-07-24T05:36:04;12.70;99.90
24682;DHT22;12802;53.390;-2.328;2023-07-24T05:38:30;12.70;99.90
24682;DHT22;12802;53.390;-2.328;2023-07-24T05:40:57;12.70;99.90
24682;DHT22;12802;53.390;-2.328;2023-07-24T05:43:23;12.70;99.90
24682;DHT22;12802;53.390;-2.328;2023-07-24T05:45:50;12.70;99.90
24682;DHT22;12802;53.390;-2.328;2023-07-24T05:48:17;12.70;99.90
24682;DHT22;12802;53.390;-2.328;2023-07-24T05:50:42;12.70;99.90
24682;DHT22;12802;53.390;-2.328;2023-07-24T05:53:08;12.70;99.90
24682;DHT22;12802;53.390;-2.328;2023-07-24T05:55:34;12.70;99.90
24682;DHT22;12802;53.390;-2.328;2023-07-24T05:58:00;12.70;99.90
24682;DHT22;12802;53.390;-2.328;2023-07-24T06:00:25;12.60;99.90
24682;DHT22;12802;53.390;-2.328;2023-07-24T06:02:52;12.60;99.90
24682;DHT22;12802;53.390;-2.328;2023-07-24T06:05:18;12.60;99.90
24682;DHT22;12802;53.390;-2.328;2023-07-24T06:07:48;12.60;99.90
24682;DHT22;12802;53.390;-2.328;2023-07-24T06:10:14;12.60;99.90
24682;DHT22;12802;53.390;-2.328;2023-07-24T06:12:39;12.70;99.90
24682;DHT22;12802;53.390;-2.328;2023-07-24T06:15:06;12.70;99.90
24682;DHT22;12802;53.390;-2.328;2023-07-24T06:17:32;12.70;99.90
24682;DHT22;12802;53.390;-2.328;2023-07-24T06:19:58;12.70;99.90
24682;DHT22;12802;53.390;-2.328;2023-07-24T06:22:24;12.70;99.90
24682;DHT22;12802;53.390;-2.328;2023-07-24T06:24:50;12.70;99.90
24682;DHT22;12802;53.390;-2.328;2023-07-24T06:27:16;12.70;99.90
24682;DHT22;12802;53.390;-2.328;2023-07-24T06:29:42;12.70;99.90
24682;DHT22;12802;53.390;-2.328;2023-07-24T06:32:08;12.90;99.90
24682;DHT22;12802;53.390;-2.328;2023-07-24T06:34:34;12.70;99.90
24682;DHT22;12802;53.390;-2.328;2023-07-24T06:37:00;12.70;99.90
24682;DHT22;12802;53.390;-2.328;2023-07-24T06:39:25;12.80;99.90
24682;DHT22;12802;53.390;-2.328;2023-07-24T06:41:52;12.80;99.90
24682;DHT22;12802;53.390;-2.328;2023-07-24T06:44:18;12.80;99.90
24682;DHT22;12802;53.390;-2.328;2023-07-24T06:46:44;12.80;99.90
24682;DHT22;12802;53.390;-2.328;2023-07-24T06:49:10;12.80;99.90
24682;DHT22;12802;53.390;-2.328;2023-07-24T06:51:36;12.80;99.90
24682;DHT22;12802;53.390;-2.328;2023-07-24T06:54:04;12.90;99.90
24682;DHT22;12802;53.390;-2.328;2023-07-24T06:56:30;12.90;99.90
24682;DHT22;12802;53.390;-2.328;2023-07-24T06:58:55;12.90;99.90
24682;DHT22;12802;53.390;-2.328;2023-07-24T07:01:21;12.90;99.90
24682;DHT22;12802;53.390;-2.328;2023-07-24T07:03:47;12.90;99.90
24682;DHT22;12802;53.390;-2.328;2023-07-24T07:06:13;13.00;99.90
24682;DHT22;12802;53.390;-2.328;2023-07-24T07:08:38;13.10;99.90
24682;DHT22;12802;53.390;-2.328;2023-07-24T07:11:04;13.10;99.90
24682;DHT22;12802;53.390;-2.328;2023-07-24T07:13:30;13.20;99.90
24682;DHT22;12802;53.390;-2.328;2023-07-24T07:15:56;13.20;99.90
24682;DHT22;12802;53.390;-2.328;2023-07-24T07:18:21;13.20;99.90
24682;DHT22;12802;53.390;-2.328;2023-07-24T07:20:49;13.30;99.90
24682;DHT22;12802;53.390;-2.328;2023-07-24T07:23:15;13.30;99.90
24682;DHT22;12802;53.390;-2.328;2023-07-24T07:25:41;13.30;99.90
24682;DHT22;12802;53.390;-2.328;2023-07-24T07:28:09;13.30;99.90
24682;DHT22;12802;53.390;-2.328;2023-07-24T07:30:35;13.30;99.90
24682;DHT22;12802;53.390;-2.328;2023-07-24T07:33:00;13.40;99.90
24682;DHT22;12802;53.390;-2.328;2023-07-24T07:35:26;13.50;99.90
24682;DHT22;12802;53.390;-2.328;2023-07-24T07:37:52;13.50;99.90
24682;DHT22;12802;53.390;-2.328;2023-07-24T07:40:18;13.50;99.90
24682;DHT22;12802;53.390;-2.328;2023-07-24T07:42:44;13.50;99.90
24682;DHT22;12802;53.390;-2.328;2023-07-24T07:45:10;13.50;99.90
24682;DHT22;12802;53.390;-2.328;2023-07-24T07:47:36;13.60;99.90
24682;DHT22;12802;53.390;-2.328;2023-07-24T07:50:03;13.60;99.90
24682;DHT22;12802;53.390;-2.328;2023-07-24T07:52:28;13.60;99.90
24682;DHT22;12802;53.390;-2.328;2023-07-24T07:54:54;13.60;99.90
24682;DHT22;12802;53.390;-2.328;2023-07-24T07:57:20;13.60;99.90
24682;DHT22;12802;53.390;-2.328;2023-07-24T07:59:46;13.70;99.90
24682;DHT22;12802;53.390;-2.328;2023-07-24T08:02:15;13.70;99.90
24682;DHT22;12802;53.390;-2.328;2023-07-24T08:04:40;13.60;99.90
24682;DHT22;12802;53.390;-2.328;2023-07-24T08:07:06;13.60;99.90
24682;DHT22;12802;53.390;-2.328;2023-07-24T08:09:32;13.70;99.90
24682;DHT22;12802;53.390;-2.328;2023-07-24T08:11:59;13.80;99.90
24682;DHT22;12802;53.390;-2.328;2023-07-24T08:14:25;13.80;99.90
24682;DHT22;12802;53.390;-2.328;2023-07-24T08:16:50;13.80;99.90
24682;DHT22;12802;53.390;-2.328;2023-07-24T08:19:16;13.70;99.90
24682;DHT22;12802;53.390;-2.328;2023-07-24T08:21:42;13.80;99.90
24682;DHT22;12802;53.390;-2.328;2023-07-24T08:24:08;13.80;99.90
24682;DHT22;12802;53.390;-2.328;2023-07-24T08:26:33;13.70;99.90
24682;DHT22;12802;53.390;-2.328;2023-07-24T08:28:59;13.80;99.90
24682;DHT22;12802;53.390;-2.328;2023-07-24T08:31:25;13.60;99.90
24682;DHT22;12802;53.390;-2.328;2023-07-24T08:33:50;13.70;99.90
24682;DHT22;12802;53.390;-2.328;2023-07-24T08:36:16;13.90;99.90
24682;DHT22;12802;53.390;-2.328;2023-07-24T08:38:42;13.90;99.90
24682;DHT22;12802;53.390;-2.328;2023-07-24T08:41:13;14.00;99.90
24682;DHT22;12802;53.390;-2.328;2023-07-24T08:43:41;14.10;99.90
24682;DHT22;12802;53.390;-2.328;2023-07-24T08:46:07;14.10;99.90
24682;DHT22;12802;53.390;-2.328;2023-07-24T08:48:38;14.10;99.90
24682;DHT22;12802;53.390;-2.328;2023-07-24T08:51:09;14.20;99.90
24682;DHT22;12802;53.390;-2.328;2023-07-24T08:53:37;14.20;99.90
24682;DHT22;12802;53.390;-2.328;2023-07-24T08:56:04;14.30;99.90
24682;DHT22;12802;53.390;-2.328;2023-07-24T08:58:30;14.40;99.90
24682;DHT22;12802;53.390;-2.328;2023-07-24T09:00:57;14.50;99.90
24682;DHT22;12802;53.390;-2.328;2023-07-24T09:03:23;14.60;99.90
24682;DHT22;12802;53.390;-2.328;2023-07-24T09:05:49;14.70;99.90
24682;DHT22;12802;53.390;-2.328;2023-07-24T09:08:15;14.70;99.90
24682;DHT22;12802;53.390;-2.328;2023-07-24T09:10:41;14.80;99.90
24682;DHT22;12802;53.390;-2.328;2023-07-24T09:15:42;15.20;99.90
24682;DHT22;12802;53.390;-2.328;2023-07-24T09:18:09;15.10;99.90
24682;DHT22;12802;53.390;-2.328;2023-07-24T09:20:40;14.90;99.90
24682;DHT22;12802;53.390;-2.328;2023-07-24T09:23:06;14.80;99.90
24682;DHT22;12802;53.390;-2.328;2023-07-24T09:25:34;14.60;99.90
24682;DHT22;12802;53.390;-2.328;2023-07-24T09:28:00;14.70;99.90
24682;DHT22;12802;53.390;-2.328;2023-07-24T09:30:26;14.80;99.90
24682;DHT22;12802;53.390;-2.328;2023-07-24T09:32:54;14.70;99.90
24682;DHT22;12802;53.390;-2.328;2023-07-24T09:35:21;14.70;99.90
24682;DHT22;12802;53.390;-2.328;2023-07-24T09:38:05;14.50;99.90
24682;DHT22;12802;53.390;-2.328;2023-07-24T09:40:45;14.60;99.90
24682;DHT22;12802;53.390;-2.328;2023-07-24T09:43:18;14.60;99.90
24682;DHT22;12802;53.390;-2.328;2023-07-24T09:45:45;15.00;99.90
24682;DHT22;12802;53.390;-2.328;2023-07-24T09:48:13;15.30;99.90
24682;DHT22;12802;53.390;-2.328;2023-07-24T09:50:41;15.50;99.90
24682;DHT22;12802;53.390;-2.328;2023-07-24T09:53:14;15.60;99.90
24682;DHT22;12802;53.390;-2.328;2023-07-24T09:56:09;15.30;99.90
24682;DHT22;12802;53.390;-2.328;2023-07-24T09:58:37;15.40;99.90
24682;DHT22;12802;53.390;-2.328;2023-07-24T10:01:05;15.40;99.90
24682;DHT22;12802;53.390;-2.328;2023-07-24T10:03:37;15.40;99.90
24682;DHT22;12802;53.390;-2.328;2023-07-24T10:06:04;15.30;99.90
24682;DHT22;12802;53.390;-2.328;2023-07-24T10:08:30;15.20;99.90
24682;DHT22;12802;53.390;-2.328;2023-07-24T10:11:00;15.10;99.90
24682;DHT22;12802;53.390;-2.328;2023-07-24T10:13:26;15.20;99.90
24682;DHT22;12802;53.390;-2.328;2023-07-24T10:15:53;15.20;99.90
24682;DHT22;12802;53.390;-2.328;2023-07-24T10:18:26;15.20;99.90
24682;DHT22;12802;53.390;-2.328;2023-07-24T10:21:03;15.20;99.90
24682;DHT22;12802;53.390;-2.328;2023-07-24T10:25:55;15.40;99.90
24682;DHT22;12802;53.390;-2.328;2023-07-24T10:28:32;15.40;99.90
24682;DHT22;12802;53.390;-2.328;2023-07-24T10:50:49;16.00;99.90
24682;DHT22;12802;53.390;-2.328;2023-07-24T10:53:18;16.00;99.90
24682;DHT22;12802;53.390;-2.328;2023-07-24T10:55:45;16.00;99.90
24682;DHT22;12802;53.390;-2.328;2023-07-24T10:58:13;16.10;99.90
24682;DHT22;12802;53.390;-2.328;2023-07-24T11:00:40;16.00;99.90
24682;DHT22;12802;53.390;-2.328;2023-07-24T11:03:10;16.00;99.90
24682;DHT22;12802;53.390;-2.328;2023-07-24T11:05:44;16.00;99.90
24682;DHT22;12802;53.390;-2.328;2023-07-24T11:08:12;15.90;99.90
24682;DHT22;12802;53.390;-2.328;2023-07-24T11:10:48;15.90;99.90
24682;DHT22;12802;53.390;-2.328;2023-07-24T11:13:22;15.90;99.90
24682;DHT22;12802;53.390;-2.328;2023-07-24T11:15:49;15.90;99.90
24682;DHT22;12802;53.390;-2.328;2023-07-24T11:18:15;15.90;99.90
24682;DHT22;12802;53.390;-2.328;2023-07-24T11:20:52;16.00;99.90
24682;DHT22;12802;53.390;-2.328;2023-07-24T11:23:19;16.20;99.90
24682;DHT22;12802;53.390;-2.328;2023-07-24T11:25:45;16.30;99.90
24682;DHT22;12802;53.390;-2.328;2023-07-24T11:28:12;16.30;99.90
24682;DHT22;12802;53.390;-2.328;2023-07-24T11:30:39;16.20;99.90
24682;DHT22;12802;53.390;-2.328;2023-07-24T11:33:07;16.30;99.90
24682;DHT22;12802;53.390;-2.328;2023-07-24T11:35:34;16.40;99.90
24682;DHT22;12802;53.390;-2.328;2023-07-24T11:38:01;16.40;99.90
24682;DHT22;12802;53.390;-2.328;2023-07-24T11:40:41;16.30;99.90
24682;DHT22;12802;53.390;-2.328;2023-07-24T11:43:18;16.40;99.90
24682;DHT22;12802;53.390;-2.328;2023-07-24T11:45:45;16.50;99.90
24682;DHT22;12802;53.390;-2.328;2023-07-24T11:48:14;16.70;99.90
24682;DHT22;12802;53.390;-2.328;2023-07-24T11:50:56;16.80;99.90
24682;DHT22;12802;53.390;-2.328;2023-07-24T11:53:30;16.90;99.90
24682;DHT22;12802;53.390;-2.328;2023-07-24T11:55:58;16.90;99.90
24682;DHT22;12802;53.390;-2.328;2023-07-24T11:58:29;16.90;99.90
24682;DHT22;12802;53.390;-2.328;2023-07-24T12:00:56;17.00;99.90
24682;DHT22;12802;53.390;-2.328;2023-07-24T12:03:26;17.10;99.90
24682;DHT22;12802;53.390;-2.328;2023-07-24T12:08:31;17.30;99.90
24682;DHT22;12802;53.390;-2.328;2023-07-24T12:10:57;17.40;99.90
24682;DHT22;12802;53.390;-2.328;2023-07-24T12:13:23;17.40;99.90
24682;DHT22;12802;53.390;-2.328;2023-07-24T12:15:49;17.40;99.90
24682;DHT22;12802;53.390;-2.328;2023-07-24T12:18:15;17.30;99.90
24682;DHT22;12802;53.390;-2.328;2023-07-24T12:20:41;17.20;99.90
24682;DHT22;12802;53.390;-2.328;2023-07-24T12:23:07;17.30;99.90
24682;DHT22;12802;53.390;-2.328;2023-07-24T12:25:32;17.50;99.90
24682;DHT22;12802;53.390;-2.328;2023-07-24T12:27:58;17.70;99.90
24682;DHT22;12802;53.390;-2.328;2023-07-24T12:30:24;17.90;99.90
24682;DHT22;12802;53.390;-2.328;2023-07-24T12:32:50;18.00;99.90
24682;DHT22;12802;53.390;-2.328;2023-07-24T12:35:16;17.90;99.90
24682;DHT22;12802;53.390;-2.328;2023-07-24T12:37:42;17.90;99.90
24682;DHT22;12802;53.390;-2.328;2023-07-24T12:40:09;17.80;99.90
24682;DHT22;12802;53.390;-2.328;2023-07-24T12:42:35;18.10;99.90
24682;DHT22;12802;53.390;-2.328;2023-07-24T12:45:01;18.30;99.90
24682;DHT22;12802;53.390;-2.328;2023-07-24T12:47:29;18.30;99.90
24682;DHT22;12802;53.390;-2.328;2023-07-24T12:49:55;18.20;99.90
24682;DHT22;12802;53.390;-2.328;2023-07-24T12:52:21;18.10;99.90
24682;DHT22;12802;53.390;-2.328;2023-07-24T12:54:47;17.90;99.90
24682;DHT22;12802;53.390;-2.328;2023-07-24T12:57:13;18.10;99.90
24682;DHT22;12802;53.390;-2.328;2023-07-24T12:59:39;18.00;99.90
24682;DHT22;12802;53.390;-2.328;2023-07-24T13:02:05;18.00;99.90
24682;DHT22;12802;53.390;-2.328;2023-07-24T13:04:31;17.90;99.90
24682;DHT22;12802;53.390;-2.328;2023-07-24T13:06:57;18.00;99.90
24682;DHT22;12802;53.390;-2.328;2023-07-24T13:33:50;19.00;99.90
24682;DHT22;12802;53.390;-2.328;2023-07-24T13:36:16;18.90;99.90
24682;DHT22;12802;53.390;-2.328;2023-07-24T13:38:42;18.90;99.90
24682;DHT22;12802;53.390;-2.328;2023-07-24T13:41:08;19.00;99.90
24682;DHT22;12802;53.390;-2.328;2023-07-24T13:43:34;19.10;99.90
24682;DHT22;12802;53.390;-2.328;2023-07-24T13:46:00;19.20;99.90
24682;DHT22;12802;53.390;-2.328;2023-07-24T13:48:28;18.90;99.90
24682;DHT22;12802;53.390;-2.328;2023-07-24T13:50:54;19.00;99.90
24682;DHT22;12802;53.390;-2.328;2023-07-24T13:53:21;19.10;99.90
24682;DHT22;12802;53.390;-2.328;2023-07-24T13:55:47;19.10;99.90
24682;DHT22;12802;53.390;-2.328;2023-07-24T13:58:13;19.00;99.90
24682;DHT22;12802;53.390;-2.328;2023-07-24T14:00:39;18.90;99.90
24682;DHT22;12802;53.390;-2.328;2023-07-24T14:03:04;19.00;99.90
24682;DHT22;12802;53.390;-2.328;2023-07-24T14:05:30;19.10;99.90
24682;DHT22;12802;53.390;-2.328;2023-07-24T14:07:56;19.20;99.90
24682;DHT22;12802;53.390;-2.328;2023-07-24T15:40:38;18.00;99.90
24682;DHT22;12802;53.390;-2.328;2023-07-24T15:43:05;18.10;99.90
24682;DHT22;12802;53.390;-2.328;2023-07-24T15:45:31;18.10;99.90
24682;DHT22;12802;53.390;-2.328;2023-07-24T15:47:57;18.10;99.90
24682;DHT22;12802;53.390;-2.328;2023-07-24T15:50:23;17.90;99.90
24682;DHT22;12802;53.390;-2.328;2023-07-24T15:52:49;18.00;99.90
24682;DHT22;12802;53.390;-2.328;2023-07-24T15:55:15;17.90;99.90
24682;DHT22;12802;53.390;-2.328;2023-07-24T15:57:41;17.90;99.90
24682;DHT22;12802;53.390;-2.328;2023-07-24T16:00:07;17.80;99.90
24682;DHT22;12802;53.390;-2.328;2023-07-24T16:02:38;17.80;99.90
24682;DHT22;12802;53.390;-2.328;2023-07-24T16:05:05;17.80;99.90
24682;DHT22;12802;53.390;-2.328;2023-07-24T16:07:31;17.70;99.90
24682;DHT22;12802;53.390;-2.328;2023-07-24T16:09:57;17.60;99.90
24682;DHT22;12802;53.390;-2.328;2023-07-24T16:12:22;17.60;99.90
24682;DHT22;12802;53.390;-2.328;2023-07-24T16:14:48;17.70;99.90
24682;DHT22;12802;53.390;-2.328;2023-07-24T16:17:14;17.70;99.90
24682;DHT22;12802;53.390;-2.328;2023-07-24T16:19:40;17.70;99.90
24682;DHT22;12802;53.390;-2.328;2023-07-24T16:22:07;17.80;99.90
24682;DHT22;12802;53.390;-2.328;2023-07-24T16:24:33;17.70;99.90
24682;DHT22;12802;53.390;-2.328;2023-07-24T16:26:59;17.60;99.90
24682;DHT22;12802;53.390;-2.328;2023-07-24T16:29:27;17.70;99.90
24682;DHT22;12802;53.390;-2.328;2023-07-24T16:31:53;17.70;99.90
24682;DHT22;12802;53.390;-2.328;2023-07-24T16:34:19;17.80;99.90
24682;DHT22;12802;53.390;-2.328;2023-07-24T16:36:44;17.80;99.90
24682;DHT22;12802;53.390;-2.328;2023-07-24T16:39:10;17.80;99.90
24682;DHT22;12802;53.390;-2.328;2023-07-24T16:41:36;17.90;99.90
24682;DHT22;12802;53.390;-2.328;2023-07-24T16:44:02;18.20;99.90
24682;DHT22;12802;53.390;-2.328;2023-07-24T16:46:27;18.60;99.90
24682;DHT22;12802;53.390;-2.328;2023-07-24T16:48:53;18.70;99.90
24682;DHT22;12802;53.390;-2.328;2023-07-24T16:51:19;18.70;99.90
24682;DHT22;12802;53.390;-2.328;2023-07-24T16:53:45;18.50;99.90
24682;DHT22;12802;53.390;-2.328;2023-07-24T16:56:11;18.20;99.90
24682;DHT22;12802;53.390;-2.328;2023-07-24T16:58:36;18.10;99.90
24682;DHT22;12802;53.390;-2.328;2023-07-24T17:01:02;17.80;99.90
24682;DHT22;12802;53.390;-2.328;2023-07-24T17:03:28;17.80;99.90
24682;DHT22;12802;53.390;-2.328;2023-07-24T17:05:54;18.10;99.90
24682;DHT22;12802;53.390;-2.328;2023-07-24T17:08:20;18.40;99.90
24682;DHT22;12802;53.390;-2.328;2023-07-24T17:10:47;18.50;99.90
24682;DHT22;12802;53.390;-2.328;2023-07-24T17:13:13;18.50;99.90
24682;DHT22;12802;53.390;-2.328;2023-07-24T17:15:39;18.40;99.90
24682;DHT22;12802;53.390;-2.328;2023-07-24T17:18:06;18.30;99.90
24682;DHT22;12802;53.390;-2.328;2023-07-24T17:20:35;18.30;99.90
24682;DHT22;12802;53.390;-2.328;2023-07-24T17:23:01;18.50;99.90
24682;DHT22;12802;53.390;-2.328;2023-07-24T17:25:27;18.70;99.90
24682;DHT22;12802;53.390;-2.328;2023-07-24T17:27:53;18.90;99.90
24682;DHT22;12802;53.390;-2.328;2023-07-24T17:30:19;18.60;99.90
24682;DHT22;12802;53.390;-2.328;2023-07-24T17:32:45;18.10;99.90
24682;DHT22;12802;53.390;-2.328;2023-07-24T17:35:11;17.90;99.90
24682;DHT22;12802;53.390;-2.328;2023-07-24T17:37:38;17.80;99.90
24682;DHT22;12802;53.390;-2.328;2023-07-24T17:40:05;17.70;99.90
24682;DHT22;12802;53.390;-2.328;2023-07-24T17:42:30;17.60;99.90
24682;DHT22;12802;53.390;-2.328;2023-07-24T17:44:56;17.60;99.90
24682;DHT22;12802;53.390;-2.328;2023-07-24T17:47:22;17.40;99.90
24682;DHT22;12802;53.390;-2.328;2023-07-24T17:49:48;17.30;99.90
24682;DHT22;12802;53.390;-2.328;2023-07-24T17:52:14;17.30;99.90
24682;DHT22;12802;53.390;-2.328;2023-07-24T17:54:41;17.20;99.90
24682;DHT22;12802;53.390;-2.328;2023-07-24T17:57:11;17.20;99.90
24682;DHT22;12802;53.390;-2.328;2023-07-24T17:59:36;17.20;99.90
24682;DHT22;12802;53.390;-2.328;2023-07-24T18:02:04;17.20;99.90
24682;DHT22;12802;53.390;-2.328;2023-07-24T18:04:29;17.10;99.90
24682;DHT22;12802;53.390;-2.328;2023-07-24T18:06:56;17.10;99.90
24682;DHT22;12802;53.390;-2.328;2023-07-24T18:09:21;17.10;99.90
24682;DHT22;12802;53.390;-2.328;2023-07-24T18:11:48;17.10;99.90